• Join FlightAware (Why Join?)
  • Login
  • US Flag 
11:49AM EDT


 

Airport Tracker/Info


-or-


 

Live Flight TrackerFlight Track Log ✈ DAL2001 ✈ 06-Sep-2013 ✈ KBTV - KATL

Flight Track Log - Related Links

Times and Time Zones

All times are in EDT time to prevent confusion due to time zone crossing. See the DAL2001 flight status page for this flight to view local times or setup timezone preferences in your user account.

Time Position Orientation Groundspeed Altitude Reporting Facility
EDT Latitude Longitude Course Direction KTS MPH feet Rate Location/Type
06:26AM 44.1207 -73.6027 195° South  Level Estimated
06:26AM 44.2714 -73.1939 204° Southwest 300 345 9,400  Level Boston Center
06:27AM 44.0326 -73.7142 198° South  Level Estimated
06:27AM 44.1858 -73.2275 196° South 300 345 12,900  Level Boston Center
06:28AM 43.9177 -73.6712 165° South  Level FlightAware Approximate
06:28AM 44.0958 -73.2756 201° Southwest 325 374 14,200  Level Boston Center
06:29AM 43.8302 -73.7832 192° South  Level Estimated
06:29AM 44.0033 -73.3581 213° Southwest 373 429 15,900  Level Boston Center
06:30AM 43.7425 -73.8948 204° Southwest  Level Estimated
06:30AM 43.9047 -73.4428 212° Southwest 411 473 18,100  Level Boston Center
06:31AM 43.7997 -73.5331 212° Southwest 440 506 20,100 1,920 Climbing Boston Center
06:32AM 43.6947 -73.6231 212° Southwest 446 513 22,000 1,680 Climbing Boston Center
06:33AM 43.5939 -73.7072 211° Southwest 461 531 23,500 1,500 Climbing Boston Center
06:34AM 43.4822 -73.8022 212° Southwest 474 545 25,000 1,380 Climbing Boston Center
06:35AM 43.3397 -73.8647 198° South 474 545 26,300 1,440 Climbing Boston Center
06:36AM 43.2000 -73.8814 185° South 484 557 28,000 1,560 Climbing Boston Center
06:37AM 43.0600 -73.8978 185° South 497 572 29,600 1,620 Climbing Boston Center
06:38AM 42.9244 -73.9117 184° South 497 572 31,300 1,680 Climbing Boston Center
06:39AM 42.7889 -73.9225 183° South 498 573 32,900 1,440 Climbing Boston Center
06:40AM 42.6553 -73.9392 185° South 493 567 34,200 1,140 Climbing Boston Center
06:41AM 42.5278 -73.9586 186° South 484 557 35,300 1,080 Climbing Boston Center
06:42AM 42.3942 -73.9722 184° South 479 551 36,400 900 Climbing Boston Center
06:43AM 42.2647 -73.9831 184° South 479 551 37,100 600 Climbing Boston Center
06:44AM 42.1333 -73.9994 185° South 479 551 37,700 420 Climbing Boston Center
06:45AM 42.0019 -74.0131 184° South 479 551 38,000 60 Climbing Boston Center
06:47AM 41.7517 -74.0353 184° South 479 551 38,000  Level New York Center
06:48AM 41.6222 -74.0483 184° South 479 551 38,000  Level New York Center
06:49AM 41.4800 -74.0636 185° South 468 539 38,000  Level New York Center
06:50AM 41.3486 -74.0792 185° South 468 539 38,000  Level New York Center
06:51AM 41.2247 -74.1117 191° South 468 539 38,000  Level New York Center
06:52AM 41.1408 -74.2067 220° Southwest 438 504 38,000  Level New York Center
06:53AM 41.0558 -74.3289 227° Southwest 438 504 38,000  Level New York Center
06:54AM 40.9750 -74.4511 229° Southwest 443 510 38,000  Level New York Center
06:55AM 40.8942 -74.5731 229° Southwest 448 516 38,000  Level New York Center
06:56AM 40.8131 -74.6944 229° Southwest 453 521 38,000  Level New York Center
06:57AM 40.7322 -74.8103 227° Southwest 448 516 38,000 -60 Level New York Center
06:58AM 40.6506 -74.9369 230° Southwest 448 516 37,900 -60 Descending New York Center
06:59AM 40.5692 -75.0550 228° Southwest 448 516 37,900  Level New York Center
07:00AM 40.4897 -75.1756 229° Southwest 443 510 38,000  Climbing New York Center
07:01AM 40.4081 -75.2956 228° Southwest 443 510 38,000  Level New York Center
07:02AM 40.3264 -75.4183 229° Southwest 443 510 38,000  Level New York Center
07:03AM 40.2444 -75.5350 227° Southwest 443 510 38,000  Level New York Center
07:04AM 40.1747 -75.6608 234° Southwest 443 510 38,000  Level New York Center
07:05AM 40.1064 -75.7969 237° Southwest 443 510 38,000  Level New York Center
07:06AM 40.0425 -75.9253 237° Southwest 437 503 38,000  Level New York Center
07:07AM 39.9786 -76.0533 237° Southwest 431 496 38,000  Level New York Center
07:08AM 39.9122 -76.1836 236° Southwest 431 496 38,000  Level New York Center
07:09AM 39.8328 -76.3208 233° Southwest 438 504 38,000  Level New York Center
07:10AM 39.7356 -76.4739 230° Southwest 431 496 38,000  Level Washington Center
07:11AM 39.6469 -76.5994 228° Southwest 431 496 38,000  Level Washington Center
07:12AM 39.5667 -76.7194 229° Southwest 431 496 38,000  Level Washington Center
07:13AM 39.4883 -76.8339 228° Southwest 431 496 38,000  Level Washington Center
07:14AM 39.4081 -76.9506 228° Southwest 431 496 38,000  Level Washington Center
07:15AM 39.3336 -77.0647 230° Southwest 436 502 38,000  Level Washington Center
07:16AM 39.2553 -77.1783 228° Southwest 431 496 38,000  Level Washington Center
07:17AM 39.1911 -77.2975 235° Southwest 426 490 38,000  Level Washington Center
07:18AM 39.1578 -77.4333 252° West 402 463 38,000  Level Washington Center
07:19AM 39.1222 -77.5714 252° West 407 468 38,000  Level Washington Center
07:20AM 39.0844 -77.7094 251° West 412 474 38,000  Level Washington Center
07:21AM 39.0428 -77.8286 246° West 412 474 38,000  Level Washington Center
07:22AM 38.9528 -77.9486 226° Southwest 421 484 38,000  Level Washington Center
07:23AM 38.8697 -78.0367 220° Southwest 421 484 38,000  Level Washington Center
07:24AM 38.7803 -78.1375 221° Southwest 426 490 38,000  Level Washington Center
07:25AM 38.6906 -78.2356 220° Southwest 426 490 38,000  Level Washington Center
07:26AM 38.6006 -78.3386 222° Southwest 431 496 38,000  Level Washington Center
07:27AM 38.5106 -78.4386 221° Southwest 431 496 38,000  Level Washington Center
07:28AM 38.4186 -78.5386 220° Southwest 431 496 38,000  Level Washington Center
07:29AM 38.3242 -78.6433 221° Southwest 436 502 38,000  Level Washington Center
07:30AM 38.2253 -78.7608 223° Southwest 443 510 38,000  Level Washington Center
07:31AM 38.1308 -78.8625 220° Southwest 449 517 38,000  Level Washington Center
07:32AM 38.0319 -78.9689 220° Southwest 454 522 38,000  Level Washington Center
07:33AM 37.9458 -79.0625 221° Southwest 454 522 38,000  Level Washington Center
07:34AM 37.8547 -79.1767 225° Southwest 459 528 38,000  Level Washington Center
07:35AM 37.7700 -79.2933 227° Southwest 459 528 38,000  Level Washington Center
07:36AM 37.6739 -79.4253 227° Southwest 470 541 38,000  Level Washington Center
07:37AM 37.5869 -79.5414 227° Southwest 470 541 38,000  Level Washington Center
07:38AM 37.4994 -79.6625 228° Southwest 470 541 38,000  Level Washington Center
07:39AM 37.4181 -79.7783 229° Southwest 488 562 38,000  Level Washington Center
07:40AM 37.3306 -79.8964 227° Southwest 481 554 38,000  Level Washington Center
07:42AM 37.1614 -80.1194 226° Southwest 469 540 38,000  Level Atlanta Center
07:43AM 37.0714 -80.2408 227° Southwest 469 540 38,000  Level Atlanta Center
07:44AM 36.9933 -80.3461 227° Southwest 469 540 38,000  Level Atlanta Center
07:45AM 36.9050 -80.4644 227° Southwest 469 540 38,000  Level Atlanta Center
07:46AM 36.8167 -80.5797 226° Southwest 469 540 38,000  Level Atlanta Center
07:47AM 36.7200 -80.7108 227° Southwest 464 534 38,000  Level Atlanta Center
07:48AM 36.6336 -80.8258 227° Southwest 451 519 38,000  Level Atlanta Center
07:49AM 36.5489 -80.9350 226° Southwest 456 525 38,000  Level Atlanta Center
07:50AM 36.4642 -81.0519 228° Southwest 456 525 38,000  Level Atlanta Center
07:51AM 36.3792 -81.1633 227° Southwest 456 525 38,000  Level Atlanta Center
07:52AM 36.2942 -81.2772 227° Southwest 456 525 38,000  Level Atlanta Center
07:53AM 36.2092 -81.3908 227° Southwest 456 525 38,000  Level Atlanta Center
07:54AM 36.1239 -81.4989 226° Southwest 451 519 38,000  Level Atlanta Center
07:55AM 36.0406 -81.6094 227° Southwest 451 519 38,000 -180 Level Atlanta Center
07:56AM 35.9531 -81.7197 226° Southwest 451 519 37,700 -600 Descending Atlanta Center
07:57AM 35.8775 -81.8194 227° Southwest 451 519 36,900 -900 Descending Atlanta Center
07:58AM 35.7919 -81.9292 226° Southwest 446 513 36,000 -660 Descending Atlanta Center
07:59AM 35.7061 -82.0389 226° Southwest 446 513 35,600 -540 Descending Atlanta Center
08:00AM 35.6203 -82.1458 225° Southwest 440 506 35,000 -300 Descending Atlanta Center
08:01AM 35.5342 -82.2575 227° Southwest 440 506 35,000 -300 Level Atlanta Center
08:02AM 35.4481 -82.3664 226° Southwest 440 506 34,500 -600 Descending Atlanta Center
08:03AM 35.3600 -82.4778 226° Southwest 445 512 33,900 -600 Descending Atlanta Center
08:04AM 35.2675 -82.5914 225° Southwest 445 512 33,300 -600 Descending Atlanta Center
08:05AM 35.1811 -82.6969 225° Southwest 434 499 32,700 -600 Descending Atlanta Center
08:06AM 35.0967 -82.8025 226° Southwest 429 494 32,100 -600 Descending Atlanta Center
08:07AM 35.0119 -82.9103 226° Southwest 434 499 31,500 -720 Descending Atlanta Center
08:08AM 34.9294 -83.0103 225° Southwest 434 499 30,700 -960 Descending Atlanta Center
08:09AM 34.8447 -83.1125 225° Southwest 428 493 29,600 -960 Descending Atlanta Center
08:10AM 34.7722 -83.1967 224° Southwest 417 480 28,800 -960 Descending Atlanta Center
08:11AM 34.6978 -83.2961 228° Southwest 406 467 27,700 -1,080 Descending Atlanta Center
08:12AM 34.6086 -83.3750 216° Southwest 394 453 26,700 -960 Descending Atlanta Center
08:13AM 34.5192 -83.4564 217° Southwest 399 459 25,800 -2,160 Descending Atlanta Center
08:14AM 34.4214 -83.5453 217° Southwest 426 490 22,400 -3,360 Descending Atlanta Center
08:15AM 34.3217 -83.6339 216° Southwest 449 517 19,100 -2,940 Descending Atlanta Center
08:16AM 34.2197 -83.7222 216° Southwest 436 502 16,600 -1,980 Descending Atlanta Center
08:17AM 34.1383 -83.7978 218° Southwest 399 459 15,200 -1,320 Descending Atlanta Center
08:18AM 34.0633 -83.8708 219° Southwest 367 422 14,000 -780 Descending Atlanta Center
08:19AM 33.9967 -83.9436 222° Southwest 336 387 13,700 -660 Descending Atlanta Center
08:20AM 33.9217 -84.0036 214° Southwest 331 381 12,700 -900 Descending Atlanta Center
08:21AM 33.8500 -84.0500 208° Southwest 317 365 12,000 -420 Descending Atlanta TRACON
08:22AM 33.7833 -84.1167 220° Southwest 309 356 12,000  Level Atlanta TRACON
08:23AM 33.7500 -84.1833 239° Southwest 258 297 12,000  Level Atlanta TRACON
08:24AM 33.7333 -84.2833 259° West 260 299 12,000 -540 Level Atlanta TRACON
08:25AM 33.7333 -84.3500 270° West 261 300 11,000 -1,260 Descending Atlanta TRACON
08:26AM 33.7333 -84.4333 270° West 259 298 9,700 -1,380 Descending Atlanta TRACON
08:27AM 33.7333 -84.5167 270° West 251 289 8,400 -1,500 Descending Atlanta TRACON
08:28AM 33.7333 -84.6000 270° West 249 287 6,900 -1,380 Descending Atlanta TRACON
08:29AM 33.7333 -84.6667 270° West 245 282 5,800 -1,020 Descending Atlanta TRACON
08:30AM 33.7333 -84.7500 270° West 236 272 5,000 -420 Descending Atlanta TRACON
08:31AM 33.7333 -84.8167 270° West 214 246 5,000  Level Atlanta TRACON
08:32AM 33.7167 -84.8833 253° West 221 254 5,000  Level Atlanta TRACON
08:33AM 33.6667 -84.9000 196° South 210 242 5,000  Level Atlanta TRACON
08:34AM 33.6500 -84.8500 112° Southeast 190 219 5,000  Level Atlanta TRACON
08:35AM 33.6500 -84.7833 90° East 190 219 5,000  Level Atlanta TRACON
08:36AM 33.6500 -84.7167 90° East 189 217 5,000 -420 Level Atlanta TRACON
08:37AM 33.6500 -84.6500 90° East 193 222 4,200 -900 Descending Atlanta TRACON
08:37AM 33.6500 -84.6000 90° East 186 214 3,400 -900 Descending Atlanta TRACON
08:38AM 33.6500 -84.5333 90° East 173 199 2,600 -780 Descending Atlanta TRACON
08:39AM 33.6500 -84.5000 90° East 124 143 1,900 -720 Descending Atlanta TRACON
08:40AM 33.6500 -84.4500 90° East 123 142 1,300 -720 Descending Atlanta TRACON